Terminal Aerodrome Forecast
Issued by NWS

Home | Current Version | Previous Version | Text Only | Print | Product List | Glossary On
Versions: 1 2 3 4 5 6 7 8 9 10 11 12 13 14 15 16 17 18 19 20 21 22 23 24 25 26 27 28 29 30 31 32
000
FTUS41 KBOX 252327
TAFHYA
TAF
KHYA 252327Z 2600/2624 23009KT P6SM OVC200
     FM260800 32007KT P6SM OVC100
     FM261100 35008KT 5SM -RA OVC080
     FM261300 01009KT 3SM -RA OVC035
     FM261500 02011KT 3SM -RA OVC015
     FM261800 03015G28KT 2SM +RA OVC008=

USA.gov is the U.S. government's official web portal to all federal, state and local government web resources and services.